LGSA Airport Information

Runway Information
Runway 11 Length 10982 ft width 148 ft
Elevation 428 ft Threshold 0 ft Heading 111
Runway 29 Length 10982 ft Width 148 ft
Elevation 490 ft Threshold 0 ft Heading 291
Airport Frequencies
Type A/G Name CHANIA RDO Frequency 563.7 MHZ
Type APP Name APP Frequency 118.125 MHZ
Type GND Name GND Frequency 121.7 MHZ
Type MISC Name RANGER BAS Frequency 25.24 MHZ
Type OPS Name BASE OPS Frequency 35.94 MHZ
Type PMSV Name PMSV METRO Frequency 35.94 MHZ
Type POST Name BULL PEN Frequency 27.895 MHZ
Type TWR Name TWR Frequency 121.1 MHZ
Airport Navaids
Type TACAN Name Souda Frequency 111200 KHZ
Type VOR-DME Name Chania Frequency 108600 KHZ
Type NDB Name Chania Frequency 409 KHZ
Airport Weather Information & NOTAM
ADDS - METARS form results

(2054 UTC 22 February 2018)
 
METAR text: LGSA 222020Z 11004KT 9999 FEW020 SCT080 12/12 Q1009
Conditions at: LGSA (SOUDA/KHANIA (AF, GR) observed 2020 UTC 22 February 2018
Temperature: 12.0°C (54°F)
Dewpoint: 12.0°C (54°F) [RH = 100%]
Pressure (altimeter): 29.79 inches Hg (1009.0 mb)
Winds: from the ESE (110 degrees) at 5 MPH (4 knots; 2.1 m/s)
Visibility: 6 or more miles (10+ km)
Ceiling: at least 12,000 feet AGL
Clouds: few clouds at 2000 feet AGL
scattered clouds at 8000 feet AGL
Weather: no significant weather observed at this time